Airfield :
LOGIN :

Register | Disclaimer

   EN    FR    IT 

 










Legend :    VFR   Marginal VFR   IFR   Intensive IFR   Very Intensive IFR
Visi :
Ceiling :
>= 8 km
>= 3000ft
5 to 8 km
1000 to 3000 ft
1500m to 5 km
500 to 1000 ft
800 to 1500m
200 to 500 ft
< 800m
< 200 ft
Symbols :   Thunderstorms  Fog  Heavy snow  Heavy precipitations  Wind > 20 kt
SIGMETs :     Misc.  Thunderstorms  Icing  Turbulence  Mountain Waves  Volcanic Ashes






- Airport Elevation : 302 ft
- IATA code : MAH


LEMH - Menorca

CURRENT METAR :
  • 192100Z 01012KT 9999 -RA FEW045 23/21 Q1015

EXPIRED METARs :
  • 192030Z 28008KT 250V330 9999 -RA FEW045 23/21 Q1018
  • 192000Z 28012KT 250V320 9999 -SHRA FEW045 FEW065CB 23/21 Q1018 RETS
  • 191930Z 24015G25KT 200V280 9999 -RA TS BKN045 SCT065CB 24/22 Q1017 RETSRA
  • 191907Z 01007KT 270V060 9999 -RA TS BKN045 SCT065CB 25/22 Q1014 RETSRA
  • 191837Z 05009KT 9999 TS FEW028 SCT070CB 26/20 Q1012

TAF AMD TAF LEMH
Valid from the 19 at 21:00 until the 20 at 21:00 UTC


192102Z 1921/2021 25009KT 9999 FEW020 TX29/2012Z TN20/2006Z
TEMPO 1921/2004 03012KT
TEMPO 1921/1924 24015G30KT 2000 TSRA FEW070CB



MET'MAP, your aeronautical weather chart ! - Copyright ORBIFLY December 2007 - Disclaimer

ORBIFLY MET'MAP TEAM :

Programming & Development : Alexandra Zaïnal
Concept & original design : Baudouin d'Aumeries
Assistance for programming : Marc-Olivier Méhu
Technical & hardware support : Manuel Goepfert

Contact : metmap@orbifly.com




SOURCES & CREDITS :

   NOAA